createdAt,value
2024-02-29T00:01:10.719Z,19.42
2024-02-29T00:03:37.347Z,16.90
2024-02-29T00:06:04.143Z,17.27
2024-02-29T00:08:30.555Z,18.48
2024-02-29T00:10:57.070Z,18.50
2024-02-29T00:13:24.046Z,19.77
2024-02-29T00:15:50.520Z,15.70
2024-02-29T00:18:16.963Z,17.88
2024-02-29T00:20:43.426Z,18.25
2024-02-29T00:23:09.911Z,17.35
2024-02-29T00:25:36.729Z,18.38
2024-02-29T00:28:03.554Z,18.88
2024-02-29T00:30:30.126Z,17.25
2024-02-29T00:32:58.283Z,19.17
2024-02-29T00:35:25.047Z,17.83
2024-02-29T00:37:51.481Z,18.45
2024-02-29T00:40:17.974Z,17.25
2024-02-29T00:42:44.579Z,17.98
2024-02-29T00:45:11.273Z,23.00
2024-02-29T00:47:37.969Z,17.25
2024-02-29T00:50:04.755Z,18.42
2024-02-29T00:52:31.335Z,18.42
2024-02-29T00:54:57.960Z,19.83
2024-02-29T00:57:24.662Z,18.48
2024-02-29T00:59:51.653Z,20.98
2024-02-29T01:02:18.271Z,19.77
2024-02-29T01:04:44.766Z,18.13
2024-02-29T01:07:11.346Z,20.02
2024-02-29T01:09:37.953Z,19.25
2024-02-29T01:12:04.595Z,21.00
2024-02-29T01:14:31.088Z,18.27
2024-02-29T01:16:58.118Z,18.85
2024-02-29T01:19:24.668Z,16.52
2024-02-29T01:21:51.376Z,19.77
2024-02-29T01:24:17.878Z,17.33
2024-02-29T01:26:44.493Z,20.15
2024-02-29T01:29:11.110Z,17.45
2024-02-29T01:31:37.590Z,15.70
2024-02-29T01:34:04.090Z,20.08
2024-02-29T01:36:30.640Z,17.25
2024-02-29T01:38:57.137Z,21.00
2024-02-29T01:41:23.774Z,19.40
2024-02-29T01:43:54.821Z,16.80
2024-02-29T01:46:21.666Z,17.23
2024-02-29T01:48:49.337Z,18.38
2024-02-29T01:51:17.131Z,17.80
2024-02-29T01:53:43.732Z,18.00
2024-02-29T01:56:11.984Z,16.20
2024-02-29T01:58:40.153Z,16.10
2024-02-29T02:01:06.879Z,19.42
2024-02-29T02:03:34.022Z,20.27
2024-02-29T02:06:00.495Z,20.85
2024-02-29T02:08:30.495Z,17.60
2024-02-29T02:10:57.118Z,18.10
2024-02-29T02:13:23.614Z,21.08
2024-02-29T02:15:50.268Z,19.88
2024-02-29T02:18:16.748Z,15.82
2024-02-29T02:20:43.259Z,17.77
2024-02-29T02:23:09.850Z,17.65
2024-02-29T02:25:36.379Z,19.48
2024-02-29T02:28:02.860Z,17.98
2024-02-29T02:30:29.305Z,16.08
2024-02-29T02:32:55.969Z,17.85
2024-02-29T02:35:22.463Z,18.17
2024-02-29T02:37:50.447Z,16.00
2024-02-29T02:40:17.405Z,16.38
2024-02-29T02:42:43.951Z,17.25
2024-02-29T02:45:10.513Z,21.05
2024-02-29T02:47:37.104Z,17.90
2024-02-29T02:50:03.781Z,18.02
2024-02-29T02:52:30.293Z,18.33
2024-02-29T02:54:56.823Z,17.75
2024-02-29T02:57:23.341Z,16.95
2024-02-29T02:59:49.837Z,20.73
2024-02-29T03:02:16.413Z,20.13
2024-02-29T03:04:43.190Z,12.88
2024-02-29T03:07:09.779Z,19.42
2024-02-29T03:09:36.283Z,17.25
2024-02-29T03:12:03.275Z,15.93
2024-02-29T03:14:30.510Z,21.27
2024-02-29T03:16:57.000Z,18.08
2024-02-29T03:19:23.575Z,17.15
2024-02-29T03:21:50.108Z,16.05
2024-02-29T03:24:16.648Z,16.08
2024-02-29T03:26:43.168Z,16.52
2024-02-29T03:29:09.659Z,18.25
2024-02-29T03:31:36.102Z,22.48
2024-02-29T03:34:03.799Z,17.48
2024-02-29T03:36:30.476Z,17.83
2024-02-29T03:38:56.941Z,22.63
2024-02-29T03:41:23.533Z,18.45
2024-02-29T03:43:50.019Z,20.90
2024-02-29T03:46:16.571Z,19.20
2024-02-29T03:48:43.088Z,20.48
2024-02-29T03:51:09.752Z,21.15
2024-02-29T03:53:36.253Z,20.58
2024-02-29T03:56:02.758Z,21.75
2024-02-29T03:58:29.250Z,21.73
2024-02-29T04:00:55.953Z,19.45
2024-02-29T04:03:22.465Z,22.60
2024-02-29T04:05:48.945Z,18.27
2024-02-29T04:08:15.479Z,24.25
2024-02-29T04:10:51.753Z,20.60
2024-02-29T04:13:18.762Z,21.67
2024-02-29T04:15:47.128Z,20.13
2024-02-29T04:18:15.722Z,21.10
2024-02-29T04:20:42.265Z,21.88
2024-02-29T04:23:08.716Z,19.33
2024-02-29T04:25:35.212Z,20.98
2024-02-29T04:28:01.712Z,21.25
2024-02-29T04:30:28.166Z,20.58
2024-02-29T04:32:54.772Z,22.88
2024-02-29T04:35:21.711Z,21.88
2024-02-29T04:37:48.575Z,18.45
2024-02-29T04:40:15.180Z,21.40
2024-02-29T04:42:42.223Z,23.95
2024-02-29T04:45:09.247Z,21.20
2024-02-29T04:47:35.980Z,20.00
2024-02-29T04:50:04.237Z,19.30
2024-02-29T04:52:30.725Z,18.02
2024-02-29T04:54:57.496Z,18.60
2024-02-29T04:57:24.001Z,20.08
2024-02-29T04:59:50.543Z,19.20
2024-02-29T05:02:17.304Z,19.67
2024-02-29T05:04:44.019Z,19.92
2024-02-29T05:07:10.575Z,21.05
2024-02-29T05:09:37.172Z,22.30
2024-02-29T05:12:03.774Z,20.63
2024-02-29T05:14:31.389Z,19.90
2024-02-29T05:16:57.919Z,19.58
2024-02-29T05:19:24.387Z,21.60
2024-02-29T05:21:52.743Z,22.13
2024-02-29T05:24:19.630Z,21.65
2024-02-29T05:26:46.119Z,21.50
2024-02-29T05:29:12.606Z,22.83
2024-02-29T05:31:39.247Z,25.40
2024-02-29T05:34:05.714Z,21.95
2024-02-29T05:36:33.106Z,22.95
2024-02-29T05:38:59.689Z,21.67
2024-02-29T05:41:26.223Z,26.58
2024-02-29T05:43:52.709Z,22.40
2024-02-29T05:46:19.218Z,22.83
2024-02-29T05:48:45.732Z,23.35
2024-02-29T05:51:12.632Z,24.20
2024-02-29T05:53:39.244Z,20.05
2024-02-29T05:56:05.772Z,21.05
2024-02-29T05:58:32.853Z,22.38
2024-02-29T06:00:59.579Z,22.83
2024-02-29T06:03:26.170Z,22.92
2024-02-29T06:05:52.760Z,26.25
2024-02-29T06:08:19.246Z,18.65
2024-02-29T06:10:47.974Z,24.85
2024-02-29T06:13:15.455Z,23.75
2024-02-29T06:15:43.175Z,23.23
2024-02-29T06:18:11.350Z,23.88
2024-02-29T06:20:37.886Z,24.80
2024-02-29T06:23:04.620Z,22.80
2024-02-29T06:25:31.182Z,24.33
2024-02-29T06:27:58.085Z,24.08
2024-02-29T06:30:32.879Z,26.70
2024-02-29T06:32:59.910Z,23.45
2024-02-29T06:35:26.562Z,25.85
2024-02-29T06:37:53.013Z,26.00
2024-02-29T06:40:22.594Z,21.67
2024-02-29T06:42:52.304Z,21.77
2024-02-29T06:45:19.103Z,23.65
2024-02-29T06:47:45.800Z,24.83
2024-02-29T06:50:13.217Z,24.75
2024-02-29T06:52:41.348Z,21.13
2024-02-29T06:55:11.523Z,26.92
2024-02-29T07:00:07.021Z,23.17
2024-02-29T07:02:34.101Z,24.80
2024-02-29T07:05:00.634Z,25.13
2024-02-29T07:07:27.997Z,24.75
2024-02-29T07:09:55.426Z,22.50
2024-02-29T07:12:22.201Z,15.90
2024-02-29T07:14:48.765Z,17.83
2024-02-29T07:17:15.280Z,20.77
2024-02-29T07:19:41.745Z,23.40
2024-02-29T07:22:08.951Z,23.95
2024-02-29T07:24:35.509Z,23.90
2024-02-29T07:27:02.867Z,23.15
2024-02-29T07:29:29.966Z,21.90
2024-02-29T07:31:56.437Z,18.40
2024-02-29T07:34:22.919Z,20.95
2024-02-29T07:36:50.201Z,21.30
2024-02-29T07:39:17.651Z,23.35
2024-02-29T07:41:44.354Z,20.23
2024-02-29T07:44:11.108Z,20.25
2024-02-29T07:46:37.702Z,21.25
2024-02-29T07:49:04.271Z,21.33
2024-02-29T07:51:30.873Z,17.02
2024-02-29T07:53:57.482Z,18.05
2024-02-29T07:56:25.774Z,23.55
2024-02-29T07:58:53.477Z,22.77
2024-02-29T08:01:20.332Z,18.90
2024-02-29T08:03:47.034Z,21.67
2024-02-29T08:06:13.538Z,20.83
2024-02-29T08:08:40.024Z,20.25
2024-02-29T08:11:07.262Z,18.08
2024-02-29T08:13:33.840Z,19.85
2024-02-29T08:16:00.377Z,24.48
2024-02-29T08:18:26.818Z,20.52
2024-02-29T08:20:53.325Z,20.38
2024-02-29T08:23:19.823Z,23.00
2024-02-29T08:25:46.325Z,19.52
2024-02-29T08:28:12.863Z,22.83
2024-02-29T08:30:39.650Z,16.65
2024-02-29T08:33:06.299Z,20.08
2024-02-29T08:35:32.832Z,19.55
2024-02-29T08:37:59.395Z,18.63
2024-02-29T08:40:26.502Z,17.08
2024-02-29T08:42:53.217Z,17.88
2024-02-29T08:45:22.003Z,20.30
2024-02-29T08:47:50.092Z,20.65
2024-02-29T08:50:16.766Z,19.90
2024-02-29T08:52:43.524Z,18.38
2024-02-29T08:55:10.312Z,17.48
2024-02-29T08:57:37.082Z,17.13
2024-02-29T09:00:04.162Z,19.85
2024-02-29T09:02:30.738Z,17.17
2024-02-29T09:04:57.186Z,18.80
2024-02-29T09:07:25.924Z,17.83
2024-02-29T09:09:52.635Z,15.38
2024-02-29T09:12:19.979Z,20.30
2024-02-29T09:14:47.536Z,17.75
2024-02-29T09:17:14.402Z,16.58
2024-02-29T09:19:40.942Z,16.63
2024-02-29T09:22:07.563Z,18.10
2024-02-29T09:24:34.374Z,19.13
2024-02-29T09:27:00.893Z,20.35
2024-02-29T09:29:29.176Z,17.42
2024-02-29T09:31:56.897Z,15.82
2024-02-29T09:34:23.543Z,14.60
2024-02-29T09:36:50.364Z,17.65
2024-02-29T09:39:16.981Z,17.65
2024-02-29T09:41:59.869Z,17.98
2024-02-29T09:44:30.772Z,18.88
2024-02-29T09:46:57.275Z,17.27
2024-02-29T09:49:23.801Z,14.80
2024-02-29T09:51:50.610Z,16.55
2024-02-29T09:54:18.572Z,15.75
2024-02-29T09:56:46.640Z,16.17
2024-02-29T09:59:17.363Z,16.65
2024-02-29T10:01:52.268Z,14.02
2024-02-29T10:04:19.532Z,13.85
2024-02-29T10:06:46.093Z,13.05
2024-02-29T10:09:12.642Z,16.13
2024-02-29T10:11:42.743Z,15.30
2024-02-29T10:14:22.951Z,14.18
2024-02-29T10:16:51.174Z,11.65
2024-02-29T10:19:17.728Z,11.93
2024-02-29T10:21:44.382Z,14.48
2024-02-29T10:24:10.878Z,13.65
2024-02-29T10:26:37.371Z,14.88
2024-02-29T10:29:05.197Z,12.25
2024-02-29T10:31:31.846Z,12.43
2024-02-29T10:33:58.349Z,16.48
2024-02-29T10:36:24.870Z,13.10
2024-02-29T10:38:52.255Z,16.08
2024-02-29T10:41:19.341Z,14.88
2024-02-29T10:43:48.737Z,14.30
2024-02-29T10:46:15.567Z,14.63
2024-02-29T10:48:58.571Z,17.45
2024-02-29T10:51:41.917Z,14.10
2024-02-29T10:54:26.865Z,18.38
2024-02-29T10:56:54.982Z,13.30
2024-02-29T10:59:21.937Z,15.30
2024-02-29T11:01:49.270Z,11.40
2024-02-29T11:04:16.512Z,12.35
2024-02-29T11:06:47.822Z,13.50
2024-02-29T11:09:16.765Z,13.73
2024-02-29T11:11:48.179Z,13.32
2024-02-29T11:14:18.687Z,13.05
2024-02-29T11:16:48.790Z,11.10
2024-02-29T11:21:46.827Z,13.65
2024-02-29T11:24:18.249Z,11.10
2024-02-29T11:26:44.700Z,13.70
2024-02-29T11:29:19.736Z,11.48
2024-02-29T11:31:55.275Z,12.68
2024-02-29T11:34:22.582Z,13.15
2024-02-29T11:36:50.494Z,11.70
2024-02-29T11:39:23.622Z,12.38
2024-02-29T11:41:51.185Z,12.65
2024-02-29T11:44:17.709Z,14.30
2024-02-29T11:46:48.388Z,14.32
2024-02-29T11:49:18.521Z,14.50
2024-02-29T11:51:45.940Z,11.95
2024-02-29T11:54:14.104Z,12.20
2024-02-29T11:56:40.692Z,12.85
2024-02-29T11:59:10.395Z,14.38
2024-02-29T12:01:37.902Z,15.88
2024-02-29T12:04:06.150Z,15.27
2024-02-29T12:06:34.294Z,13.65
2024-02-29T12:09:01.341Z,14.65
2024-02-29T12:11:28.254Z,12.57
2024-02-29T12:13:54.951Z,13.75
2024-02-29T12:16:21.607Z,14.77
2024-02-29T12:18:48.240Z,12.50
2024-02-29T12:21:14.845Z,14.45
2024-02-29T12:23:41.424Z,11.25
2024-02-29T12:26:09.018Z,13.13
2024-02-29T12:28:36.337Z,13.40
2024-02-29T12:31:03.041Z,9.02
2024-02-29T12:33:30.226Z,9.85
2024-02-29T12:35:56.928Z,9.65
2024-02-29T12:38:25.010Z,8.95
2024-02-29T12:40:53.045Z,9.02
2024-02-29T12:43:23.379Z,8.00
2024-02-29T12:45:50.072Z,7.70
2024-02-29T12:48:16.635Z,9.00
2024-02-29T12:50:43.218Z,8.70
2024-02-29T12:53:09.778Z,8.40
2024-02-29T12:55:36.964Z,9.40
2024-02-29T12:58:04.661Z,7.68
2024-02-29T13:00:31.309Z,8.40
2024-02-29T13:02:57.793Z,8.00
2024-02-29T13:05:24.233Z,8.20
2024-02-29T13:07:51.303Z,8.35
2024-02-29T13:10:17.937Z,8.57
2024-02-29T13:12:51.448Z,8.00
2024-02-29T13:15:21.192Z,8.60
2024-02-29T13:17:47.724Z,8.20
2024-02-29T13:20:14.355Z,7.78
2024-02-29T13:22:41.090Z,7.70
2024-02-29T13:25:08.221Z,7.32
2024-02-29T13:27:35.297Z,9.23
2024-02-29T13:30:01.959Z,9.90
2024-02-29T13:32:31.173Z,7.53
2024-02-29T13:34:58.052Z,7.72
2024-02-29T13:37:25.831Z,8.32
2024-02-29T13:39:53.095Z,7.70
2024-02-29T13:42:19.964Z,6.75
2024-02-29T13:44:48.038Z,9.18
2024-02-29T13:47:14.536Z,7.03
2024-02-29T13:49:41.062Z,7.10
2024-02-29T13:52:07.901Z,7.70
2024-02-29T13:54:34.519Z,8.55
2024-02-29T13:57:01.239Z,9.13
2024-02-29T13:59:30.523Z,9.05
2024-02-29T14:01:57.200Z,7.57
2024-02-29T14:04:23.837Z,9.65
2024-02-29T14:06:50.404Z,9.38
2024-02-29T14:09:17.045Z,9.70
2024-02-29T14:11:43.690Z,9.30
2024-02-29T14:14:10.306Z,8.52
2024-02-29T14:16:36.832Z,8.38
2024-02-29T14:19:03.323Z,8.05
2024-02-29T14:21:29.944Z,6.80
2024-02-29T14:23:56.483Z,8.38
2024-02-29T14:26:23.975Z,8.38
2024-02-29T14:28:52.244Z,7.53
2024-02-29T14:31:19.026Z,7.50
2024-02-29T14:33:45.689Z,7.70
2024-02-29T14:36:12.953Z,8.63
2024-02-29T14:38:39.787Z,8.80
2024-02-29T14:41:06.334Z,11.15
2024-02-29T14:43:32.808Z,8.23
2024-02-29T14:45:59.372Z,9.77
2024-02-29T14:48:25.904Z,9.80
2024-02-29T14:50:52.401Z,9.82
2024-02-29T14:53:18.888Z,10.90
2024-02-29T14:55:45.375Z,9.50
2024-02-29T14:58:11.931Z,11.05
2024-02-29T15:00:38.539Z,10.10
2024-02-29T15:03:05.432Z,10.38
2024-02-29T15:05:31.874Z,11.43
2024-02-29T15:07:59.052Z,9.57
2024-02-29T15:10:25.612Z,11.02
2024-02-29T15:12:52.329Z,11.73
2024-02-29T15:15:18.987Z,12.65
2024-02-29T15:17:45.618Z,12.32
2024-02-29T15:20:12.573Z,11.07
2024-02-29T15:22:39.277Z,13.15
2024-02-29T15:25:15.421Z,11.18
2024-02-29T15:30:13.666Z,12.15
2024-02-29T15:32:40.183Z,11.18
2024-02-29T15:35:07.490Z,9.73
2024-02-29T15:37:34.050Z,11.63
2024-02-29T15:40:00.786Z,10.85
2024-02-29T15:42:27.889Z,11.50
2024-02-29T15:44:54.448Z,11.80
2024-02-29T15:47:21.061Z,11.82
2024-02-29T15:49:49.360Z,12.43
2024-02-29T15:52:17.589Z,11.02
2024-02-29T15:54:44.492Z,10.48
2024-02-29T15:57:12.459Z,10.57
2024-02-29T15:59:40.167Z,11.10
2024-02-29T16:02:07.777Z,11.45
2024-02-29T16:04:34.321Z,11.93
2024-02-29T16:07:01.069Z,10.45
2024-02-29T16:09:27.773Z,10.43
2024-02-29T16:11:54.471Z,11.68
2024-02-29T16:14:21.127Z,9.82
2024-02-29T16:16:48.774Z,10.50
2024-02-29T16:19:16.858Z,10.20
2024-02-29T16:21:43.627Z,11.00
2024-02-29T16:24:10.432Z,10.77
2024-02-29T16:26:37.301Z,13.98
2024-02-29T16:29:04.056Z,9.93
2024-02-29T16:31:30.789Z,10.05
2024-02-29T16:33:57.621Z,11.60
2024-02-29T16:36:24.270Z,12.93
2024-02-29T16:38:50.817Z,10.63
2024-02-29T16:41:17.590Z,10.90
2024-02-29T16:43:44.549Z,11.25
2024-02-29T16:46:11.446Z,10.48
2024-02-29T16:48:38.445Z,10.30
2024-02-29T16:51:05.608Z,10.90
2024-02-29T16:53:32.400Z,9.63
2024-02-29T16:55:59.831Z,11.10
2024-02-29T16:58:26.651Z,8.65
2024-02-29T17:00:55.410Z,12.95
2024-02-29T17:03:22.075Z,9.88
2024-02-29T17:05:48.635Z,10.05
2024-02-29T17:08:15.166Z,9.73
2024-02-29T17:10:42.050Z,9.82
2024-02-29T17:13:08.662Z,9.50
2024-02-29T17:15:38.215Z,9.95
2024-02-29T17:18:05.060Z,8.52
2024-02-29T17:20:31.578Z,8.25
2024-02-29T17:22:58.068Z,8.30
2024-02-29T17:25:24.642Z,9.45
2024-02-29T17:27:52.300Z,9.65
2024-02-29T17:30:19.821Z,8.07
2024-02-29T17:32:48.484Z,8.80
2024-02-29T17:35:17.093Z,9.13
2024-02-29T17:40:11.767Z,10.07
2024-02-29T17:42:38.357Z,8.43
2024-02-29T17:45:05.429Z,9.25
2024-02-29T17:47:32.074Z,8.77
2024-02-29T17:49:58.912Z,9.75
2024-02-29T17:52:26.373Z,8.98
2024-02-29T17:54:53.357Z,10.52
2024-02-29T17:57:19.914Z,8.10
2024-02-29T17:59:46.401Z,9.30
2024-02-29T18:02:12.923Z,9.90
2024-02-29T18:04:39.689Z,9.10
2024-02-29T18:07:06.423Z,8.52
2024-02-29T18:09:33.448Z,8.88
2024-02-29T18:11:59.920Z,9.48
2024-02-29T18:14:27.690Z,9.90
2024-02-29T18:16:55.733Z,8.35
2024-02-29T18:19:22.364Z,10.88
2024-02-29T18:21:49.469Z,11.55
2024-02-29T18:24:16.009Z,11.38
2024-02-29T18:26:44.416Z,10.32
2024-02-29T18:29:10.905Z,10.48
2024-02-29T18:31:37.344Z,11.95
2024-02-29T18:34:03.847Z,9.98
2024-02-29T18:36:30.408Z,10.68
2024-02-29T18:38:56.925Z,12.40
2024-02-29T18:41:23.412Z,10.57
2024-02-29T18:43:50.035Z,10.20
2024-02-29T18:46:17.581Z,9.90
2024-02-29T18:48:44.308Z,13.02
2024-02-29T18:51:10.850Z,10.88
2024-02-29T18:53:37.320Z,9.57
2024-02-29T18:56:04.018Z,10.10
2024-02-29T18:58:31.269Z,10.15
2024-02-29T19:00:57.953Z,11.43
2024-02-29T19:03:24.460Z,11.32
2024-02-29T19:05:51.830Z,12.25
2024-02-29T19:08:20.240Z,10.98
2024-02-29T19:10:47.303Z,11.00
2024-02-29T19:13:14.082Z,12.15
2024-02-29T19:15:40.612Z,10.88
2024-02-29T19:18:09.975Z,9.18
2024-02-29T19:20:36.495Z,13.75
2024-02-29T19:23:03.800Z,9.88
2024-02-29T19:25:30.398Z,11.88
2024-02-29T19:27:56.946Z,9.80
2024-02-29T19:30:23.825Z,12.32
2024-02-29T19:32:50.454Z,12.13
2024-02-29T19:35:16.950Z,11.63
2024-02-29T19:37:43.687Z,10.15
2024-02-29T19:40:10.327Z,11.30
2024-02-29T19:42:39.042Z,10.27
2024-02-29T19:45:06.811Z,12.75
2024-02-29T19:47:33.437Z,11.45
2024-02-29T19:50:00.001Z,8.88
2024-02-29T19:52:27.364Z,12.18
2024-02-29T19:54:53.971Z,11.20
2024-02-29T19:57:20.532Z,9.80
2024-02-29T19:59:47.016Z,13.50
2024-02-29T20:02:13.659Z,11.88
2024-02-29T20:04:40.285Z,10.70
2024-02-29T20:07:06.861Z,12.90
2024-02-29T20:09:33.781Z,11.18
2024-02-29T20:12:00.309Z,12.25
2024-02-29T20:14:26.791Z,12.77
2024-02-29T20:16:53.319Z,11.68
2024-02-29T20:19:19.854Z,16.45
2024-02-29T20:21:47.738Z,13.60
2024-02-29T20:24:14.355Z,13.18
2024-02-29T20:26:40.914Z,13.07
2024-02-29T20:29:07.420Z,11.82
2024-02-29T20:31:34.821Z,13.32
2024-02-29T20:34:01.541Z,13.93
2024-02-29T20:36:29.986Z,13.15
2024-02-29T20:38:56.879Z,13.70
2024-02-29T20:41:23.496Z,13.90
2024-02-29T20:43:50.115Z,12.80
2024-02-29T20:46:17.825Z,14.77
2024-02-29T20:48:45.792Z,12.70
2024-02-29T20:51:12.928Z,14.52
2024-02-29T20:53:39.583Z,14.38
2024-02-29T20:56:06.322Z,14.02
2024-02-29T20:58:32.902Z,16.95
2024-02-29T21:00:59.949Z,13.95
2024-02-29T21:03:26.801Z,13.75
2024-02-29T21:05:53.316Z,17.17
2024-02-29T21:08:19.807Z,15.70
2024-02-29T21:10:47.040Z,16.60
2024-02-29T21:13:13.794Z,15.00
2024-02-29T21:15:40.504Z,14.82
2024-02-29T21:18:07.706Z,17.17
2024-02-29T21:20:35.068Z,15.65
2024-02-29T21:23:02.874Z,12.75
2024-02-29T21:25:30.329Z,17.92
2024-02-29T21:27:57.026Z,13.02
2024-02-29T21:30:23.638Z,13.73
2024-02-29T21:32:50.388Z,13.07
2024-02-29T21:35:20.792Z,14.43
2024-02-29T21:37:47.521Z,15.23
2024-02-29T21:40:14.690Z,17.17
2024-02-29T21:42:41.245Z,15.30
2024-02-29T21:45:08.892Z,13.98
2024-02-29T21:47:35.411Z,15.68
2024-02-29T21:50:02.002Z,17.23
2024-02-29T21:52:28.642Z,13.18
2024-02-29T21:54:55.379Z,14.73
2024-02-29T21:57:21.879Z,14.38
2024-02-29T21:59:48.388Z,16.45
2024-02-29T22:02:15.020Z,17.33
2024-02-29T22:04:41.494Z,14.82
2024-02-29T22:07:08.200Z,16.05
2024-02-29T22:09:34.680Z,14.95
2024-02-29T22:12:01.159Z,12.70
2024-02-29T22:14:28.232Z,13.75
2024-02-29T22:16:55.440Z,13.65
2024-02-29T22:19:23.193Z,14.80
2024-02-29T22:21:49.965Z,15.38
2024-02-29T22:24:17.090Z,15.18
2024-02-29T22:26:43.771Z,14.48
2024-02-29T22:29:11.944Z,15.27
2024-02-29T22:31:41.128Z,13.40
2024-02-29T22:34:07.695Z,11.27
2024-02-29T22:36:34.214Z,15.15
2024-02-29T22:39:00.759Z,15.68
2024-02-29T22:41:27.329Z,16.05
2024-02-29T22:43:53.859Z,12.98
2024-02-29T22:46:20.397Z,16.30
2024-02-29T22:48:46.991Z,15.43
2024-02-29T22:51:13.517Z,14.82
2024-02-29T22:53:39.984Z,14.40
2024-02-29T22:56:06.744Z,17.10
2024-02-29T22:58:34.192Z,15.35
2024-02-29T23:01:00.904Z,14.75
2024-02-29T23:03:27.446Z,15.02
2024-02-29T23:05:53.957Z,13.70
2024-02-29T23:08:20.718Z,13.40
2024-02-29T23:10:47.328Z,15.93
2024-02-29T23:13:14.134Z,16.20
2024-02-29T23:15:40.636Z,15.55
2024-02-29T23:18:07.532Z,14.93
2024-02-29T23:20:34.195Z,17.98
2024-02-29T23:23:01.682Z,15.20
2024-02-29T23:25:29.082Z,15.15
2024-02-29T23:27:55.755Z,16.02
2024-02-29T23:30:22.363Z,17.52
2024-02-29T23:32:48.949Z,17.35
2024-02-29T23:35:15.517Z,14.55
2024-02-29T23:37:42.000Z,15.27
2024-02-29T23:40:08.958Z,14.95
2024-02-29T23:42:35.530Z,13.93
2024-02-29T23:45:02.094Z,14.93
2024-02-29T23:47:28.618Z,13.55
2024-02-29T23:49:55.087Z,12.65
2024-02-29T23:52:21.630Z,14.73
2024-02-29T23:54:48.243Z,16.85
2024-02-29T23:57:14.705Z,13.10
2024-02-29T23:59:41.156Z,11.82
